createdAt,value
2023-04-22T00:00:27.795Z,2.83
2023-04-22T00:02:57.262Z,1.52
2023-04-22T00:05:25.647Z,1.80
2023-04-22T00:07:54.006Z,1.77
2023-04-22T00:10:22.364Z,1.48
2023-04-22T00:12:50.619Z,2.00
2023-04-22T00:15:22.446Z,1.60
2023-04-22T00:17:50.984Z,3.65
2023-04-22T00:20:24.362Z,2.97
2023-04-22T00:22:52.750Z,1.97
2023-04-22T00:25:21.279Z,1.50
2023-04-22T00:27:49.702Z,2.08
2023-04-22T00:30:17.975Z,1.70
2023-04-22T00:32:46.279Z,1.35
2023-04-22T00:35:14.562Z,4.68
2023-04-22T00:37:42.946Z,2.50
2023-04-22T00:40:12.125Z,3.25
2023-04-22T00:42:40.730Z,2.72
2023-04-22T00:45:13.145Z,5.55
2023-04-22T00:47:42.713Z,3.30
2023-04-22T00:50:11.450Z,6.10
2023-04-22T00:52:39.717Z,3.55
2023-04-22T00:55:08.460Z,3.13
2023-04-22T00:57:37.217Z,2.65
2023-04-22T01:00:07.105Z,3.53
2023-04-22T01:02:35.526Z,3.55
2023-04-22T01:05:04.899Z,2.58
2023-04-22T01:07:33.385Z,5.20
2023-04-22T01:10:02.320Z,4.40
2023-04-22T01:12:30.583Z,3.95
2023-04-22T01:14:58.985Z,2.90
2023-04-22T01:17:27.322Z,3.22
2023-04-22T01:19:56.583Z,5.82
2023-04-22T01:22:31.608Z,7.05
2023-04-22T01:25:00.217Z,3.17
2023-04-22T01:27:28.612Z,4.10
2023-04-22T01:29:57.111Z,4.25
2023-04-22T01:32:25.940Z,3.17
2023-04-22T01:34:54.350Z,6.60
2023-04-22T01:37:22.888Z,3.15
2023-04-22T01:39:51.545Z,2.35
2023-04-22T01:42:20.246Z,3.83
2023-04-22T01:44:48.809Z,5.85
2023-04-22T01:47:17.350Z,5.43
2023-04-22T01:49:45.979Z,3.13
2023-04-22T01:52:14.626Z,5.53
2023-04-22T01:54:43.140Z,5.18
2023-04-22T01:57:14.820Z,4.25
2023-04-22T01:59:43.172Z,5.43
2023-04-22T02:02:11.624Z,2.45
2023-04-22T02:04:40.069Z,3.83
2023-04-22T02:07:08.410Z,2.75
2023-04-22T02:09:37.109Z,5.93
2023-04-22T02:12:05.854Z,5.28
2023-04-22T02:14:34.189Z,5.47
2023-04-22T02:17:05.733Z,3.33
2023-04-22T02:19:34.246Z,4.55
2023-04-22T02:22:02.793Z,5.35
2023-04-22T02:24:31.078Z,4.72
2023-04-22T02:26:59.353Z,3.72
2023-04-22T02:29:28.187Z,4.28
2023-04-22T02:31:56.463Z,4.85
2023-04-22T02:34:24.737Z,8.10
2023-04-22T02:36:53.045Z,6.13
2023-04-22T02:39:21.589Z,4.32
2023-04-22T02:41:49.846Z,5.10
2023-04-22T02:44:18.127Z,3.28
2023-04-22T02:46:46.450Z,4.93
2023-04-22T02:49:14.767Z,3.08
2023-04-22T02:51:43.038Z,5.55
2023-04-22T02:54:11.378Z,5.45
2023-04-22T02:56:39.694Z,5.55
2023-04-22T02:59:08.024Z,7.22
2023-04-22T03:01:36.357Z,4.38
2023-04-22T03:04:04.962Z,5.43
2023-04-22T03:06:33.665Z,5.72
2023-04-22T03:09:01.997Z,5.25
2023-04-22T03:11:30.308Z,5.63
2023-04-22T03:13:58.612Z,4.85
2023-04-22T03:16:27.021Z,3.75
2023-04-22T03:18:55.391Z,6.90
2023-04-22T03:21:23.715Z,7.78
2023-04-22T03:23:51.952Z,7.93
2023-04-22T03:26:20.294Z,5.28
2023-04-22T03:28:48.540Z,3.90
2023-04-22T03:31:17.259Z,8.23
2023-04-22T03:33:45.932Z,5.07
2023-04-22T03:36:14.181Z,5.53
2023-04-22T03:38:42.542Z,7.65
2023-04-22T03:41:11.009Z,5.80
2023-04-22T03:43:39.250Z,4.30
2023-04-22T03:46:09.046Z,4.25
2023-04-22T03:48:37.613Z,6.07
2023-04-22T03:51:05.925Z,5.20
2023-04-22T03:53:34.190Z,6.47
2023-04-22T03:56:02.424Z,5.30
2023-04-22T03:58:30.879Z,6.13
2023-04-22T04:00:59.189Z,5.88
2023-04-22T04:03:30.177Z,4.57
2023-04-22T04:05:59.404Z,5.82
2023-04-22T04:08:27.814Z,5.22
2023-04-22T04:10:56.209Z,4.97
2023-04-22T04:13:24.517Z,5.88
2023-04-22T04:15:53.421Z,5.78
2023-04-22T04:18:22.454Z,7.53
2023-04-22T04:20:50.698Z,5.88
2023-04-22T04:23:19.248Z,6.57
2023-04-22T04:25:48.667Z,6.63
2023-04-22T04:28:18.638Z,7.32
2023-04-22T04:30:47.542Z,9.52
2023-04-22T04:33:18.166Z,4.80
2023-04-22T04:35:46.858Z,4.57
2023-04-22T04:38:15.369Z,8.15
2023-04-22T04:40:44.491Z,6.10
2023-04-22T04:43:13.831Z,7.15
2023-04-22T04:45:48.800Z,7.45
2023-04-22T04:48:17.864Z,8.50
2023-04-22T04:50:46.578Z,7.45
2023-04-22T04:53:14.812Z,9.98
2023-04-22T04:55:43.118Z,8.90
2023-04-22T04:58:11.580Z,9.32
2023-04-22T05:00:39.884Z,7.90
2023-04-22T05:03:08.479Z,8.48
2023-04-22T05:05:37.147Z,8.68
2023-04-22T05:08:05.783Z,8.38
2023-04-22T05:10:34.138Z,8.52
2023-04-22T05:13:04.100Z,7.28
2023-04-22T05:15:32.944Z,8.63
2023-04-22T05:18:01.392Z,8.38
2023-04-22T05:20:29.784Z,8.35
2023-04-22T05:22:58.071Z,7.57
2023-04-22T05:25:26.420Z,9.75
2023-04-22T05:27:54.721Z,6.55
2023-04-22T05:30:23.100Z,7.05
2023-04-22T05:32:51.494Z,9.95
2023-04-22T05:35:19.986Z,7.97
2023-04-22T05:37:48.527Z,8.65
2023-04-22T05:40:17.027Z,8.85
2023-04-22T05:42:45.392Z,12.70
2023-04-22T05:45:13.780Z,8.07
2023-04-22T05:47:42.246Z,7.93
2023-04-22T05:50:10.781Z,8.65
2023-04-22T05:52:39.054Z,10.48
2023-04-22T05:55:08.299Z,8.48
2023-04-22T05:57:36.629Z,8.90
2023-04-22T06:00:06.220Z,12.45
2023-04-22T06:02:34.709Z,8.95
2023-04-22T06:05:03.563Z,8.85
2023-04-22T06:07:32.043Z,9.13
2023-04-22T06:10:05.144Z,13.05
2023-04-22T06:12:35.652Z,10.03
2023-04-22T06:15:04.080Z,8.48
2023-04-22T06:17:32.430Z,12.02
2023-04-22T06:20:00.833Z,7.63
2023-04-22T06:22:29.058Z,6.93
2023-04-22T06:24:57.353Z,7.80
2023-04-22T06:27:25.643Z,9.38
2023-04-22T06:29:53.917Z,8.93
2023-04-22T06:32:22.379Z,9.50
2023-04-22T06:34:50.638Z,11.45
2023-04-22T06:37:19.350Z,11.73
2023-04-22T06:39:47.974Z,11.60
2023-04-22T06:42:16.263Z,8.65
2023-04-22T06:44:44.550Z,11.85
2023-04-22T06:47:12.822Z,11.75
2023-04-22T06:49:41.468Z,14.18
2023-04-22T06:52:10.258Z,14.00
2023-04-22T06:54:39.350Z,9.52
2023-04-22T06:57:08.843Z,16.98
2023-04-22T06:59:37.349Z,11.40
2023-04-22T07:02:06.910Z,9.45
2023-04-22T07:04:35.368Z,9.50
2023-04-22T07:07:04.484Z,14.00
2023-04-22T07:09:32.854Z,8.40
2023-04-22T07:12:02.128Z,10.27
2023-04-22T07:14:30.445Z,9.23
2023-04-22T07:16:58.861Z,12.15
2023-04-22T07:19:27.455Z,8.60
2023-04-22T07:21:55.900Z,6.72
2023-04-22T07:24:24.501Z,10.30
2023-04-22T07:26:52.886Z,8.32
2023-04-22T07:29:21.311Z,8.13
2023-04-22T07:31:49.688Z,9.48
2023-04-22T07:34:19.264Z,9.32
2023-04-22T07:36:48.033Z,9.63
2023-04-22T07:39:16.825Z,12.13
2023-04-22T07:41:45.066Z,8.05
2023-04-22T07:44:17.348Z,11.32
2023-04-22T07:46:45.933Z,8.50
2023-04-22T07:49:14.951Z,7.18
2023-04-22T07:51:43.446Z,9.07
2023-04-22T07:54:11.924Z,8.90
2023-04-22T07:56:40.302Z,9.65
2023-04-22T07:59:08.656Z,10.77
2023-04-22T08:01:36.956Z,8.15
2023-04-22T08:04:05.512Z,13.25
2023-04-22T08:06:33.992Z,9.63
2023-04-22T08:09:02.267Z,8.68
2023-04-22T08:11:31.305Z,7.07
2023-04-22T08:13:59.794Z,10.18
2023-04-22T08:16:28.188Z,9.45
2023-04-22T08:18:58.418Z,8.52
2023-04-22T08:21:28.414Z,8.30
2023-04-22T08:23:56.930Z,8.45
2023-04-22T08:26:25.326Z,8.55
2023-04-22T08:28:53.589Z,7.97
2023-04-22T08:31:21.825Z,10.77
2023-04-22T08:33:51.562Z,9.45
2023-04-22T08:36:22.637Z,7.93
2023-04-22T08:38:51.133Z,9.73
2023-04-22T08:41:20.320Z,8.80
2023-04-22T08:43:49.108Z,13.38
2023-04-22T08:46:20.927Z,8.60
2023-04-22T08:48:51.029Z,8.63
2023-04-22T08:51:19.578Z,9.52
2023-04-22T08:53:48.601Z,13.48
2023-04-22T08:56:17.469Z,9.55
2023-04-22T08:58:47.524Z,10.15
2023-04-22T09:01:16.451Z,8.52
2023-04-22T09:03:45.510Z,10.95
2023-04-22T09:06:13.982Z,16.10
2023-04-22T09:08:42.257Z,8.63
2023-04-22T09:11:11.356Z,10.25
2023-04-22T09:13:39.669Z,12.13
2023-04-22T09:16:08.238Z,9.05
2023-04-22T09:18:49.002Z,11.43
2023-04-22T09:21:17.516Z,11.10
2023-04-22T09:23:51.344Z,7.80
2023-04-22T09:26:27.038Z,10.35
2023-04-22T09:28:59.210Z,5.95
2023-04-22T09:31:30.581Z,13.23
2023-04-22T09:34:01.665Z,10.50
2023-04-22T09:36:30.988Z,10.25
2023-04-22T09:39:01.409Z,10.48
2023-04-22T09:41:35.461Z,10.80
2023-04-22T09:44:05.323Z,12.93
2023-04-22T09:46:34.839Z,9.85
2023-04-22T09:49:03.643Z,11.85
2023-04-22T09:51:32.920Z,12.73
2023-04-22T09:54:07.331Z,10.52
2023-04-22T09:56:43.251Z,8.30
2023-04-22T09:59:12.021Z,11.52
2023-04-22T10:01:44.041Z,9.32
2023-04-22T10:04:14.536Z,9.13
2023-04-22T10:06:43.784Z,9.57
2023-04-22T10:09:13.179Z,6.35
2023-04-22T10:11:42.385Z,7.93
2023-04-22T10:14:12.130Z,10.52
2023-04-22T10:16:42.009Z,12.32
2023-04-22T10:19:15.685Z,8.07
2023-04-22T10:21:47.143Z,10.07
2023-04-22T10:24:19.650Z,9.68
2023-04-22T10:26:58.933Z,11.00
2023-04-22T10:29:29.077Z,9.13
2023-04-22T10:32:27.967Z,9.13
2023-04-22T10:35:10.923Z,8.77
2023-04-22T10:37:43.324Z,12.63
2023-04-22T10:40:21.059Z,11.32
2023-04-22T10:42:52.731Z,13.35
2023-04-22T10:45:27.329Z,13.38
2023-04-22T10:50:29.439Z,8.45
2023-04-22T10:53:00.042Z,15.98
2023-04-22T10:55:52.583Z,9.75
2023-04-22T10:58:26.322Z,11.23
2023-04-22T11:01:00.783Z,9.50
2023-04-22T11:03:31.837Z,10.43
2023-04-22T11:06:17.165Z,10.38
2023-04-22T11:08:50.278Z,8.25
2023-04-22T11:11:20.392Z,9.48
2023-04-22T11:13:51.743Z,12.15
2023-04-22T11:16:23.391Z,7.53
2023-04-22T11:18:51.930Z,8.70
2023-04-22T11:21:21.759Z,10.30
2023-04-22T11:23:54.001Z,10.25
2023-04-22T11:26:36.176Z,11.73
2023-04-22T11:29:04.711Z,8.57
2023-04-22T11:31:33.197Z,7.63
2023-04-22T11:34:01.561Z,14.30
2023-04-22T11:36:30.007Z,7.60
2023-04-22T11:38:58.500Z,9.85
2023-04-22T11:41:26.888Z,12.93
2023-04-22T11:43:55.752Z,10.07
2023-04-22T11:46:32.005Z,9.90
2023-04-22T11:49:16.660Z,10.55
2023-04-22T11:51:58.023Z,9.85
2023-04-22T11:54:33.984Z,12.43
2023-04-22T11:57:07.630Z,13.25
2023-04-22T11:59:36.796Z,12.50
2023-04-22T12:02:09.088Z,12.30
2023-04-22T12:04:42.079Z,12.30
2023-04-22T12:07:10.576Z,8.02
2023-04-22T12:09:40.598Z,9.30
2023-04-22T12:12:09.062Z,9.95
2023-04-22T12:14:38.189Z,11.40
2023-04-22T12:17:09.883Z,10.82
2023-04-22T12:19:39.302Z,12.15
2023-04-22T12:22:07.829Z,8.88
2023-04-22T12:24:36.461Z,8.88
2023-04-22T12:27:05.350Z,8.10
2023-04-22T12:29:35.175Z,13.07
2023-04-22T12:32:03.483Z,9.27
2023-04-22T12:34:31.951Z,9.65
2023-04-22T12:37:00.864Z,10.68
2023-04-22T12:39:29.120Z,8.38
2023-04-22T12:41:58.635Z,10.52
2023-04-22T12:44:26.989Z,12.90
2023-04-22T12:46:55.238Z,9.63
2023-04-22T12:49:23.521Z,11.07
2023-04-22T12:51:54.910Z,11.68
2023-04-22T12:54:23.586Z,11.65
2023-04-22T12:56:52.490Z,13.38
2023-04-22T12:59:21.417Z,10.57
2023-04-22T13:01:49.675Z,9.95
2023-04-22T13:04:21.095Z,7.32
2023-04-22T13:06:51.460Z,9.80
2023-04-22T13:09:20.795Z,12.70
2023-04-22T13:11:50.230Z,10.98
2023-04-22T13:14:18.876Z,8.45
2023-04-22T13:16:47.553Z,9.43
2023-04-22T13:19:16.320Z,8.25
2023-04-22T13:21:44.662Z,8.98
2023-04-22T13:24:13.022Z,10.57
2023-04-22T13:26:41.335Z,11.25
2023-04-22T13:29:14.446Z,8.32
2023-04-22T13:31:46.128Z,7.07
2023-04-22T13:34:15.276Z,10.35
2023-04-22T13:36:43.738Z,8.10
2023-04-22T13:39:12.683Z,7.43
2023-04-22T13:41:41.006Z,9.70
2023-04-22T13:44:09.298Z,5.80
2023-04-22T13:46:37.557Z,12.52
2023-04-22T13:49:06.669Z,9.35
2023-04-22T13:51:35.078Z,8.52
2023-04-22T13:54:03.299Z,7.30
2023-04-22T13:56:32.013Z,8.73
2023-04-22T13:59:00.742Z,9.88
2023-04-22T14:01:29.096Z,13.18
2023-04-22T14:03:57.646Z,6.25
2023-04-22T14:06:26.118Z,11.50
2023-04-22T14:08:54.512Z,6.97
2023-04-22T14:11:22.871Z,8.93
2023-04-22T14:13:51.160Z,9.02
2023-04-22T14:16:20.724Z,9.75
2023-04-22T14:18:49.634Z,8.82
2023-04-22T14:21:18.085Z,10.35
2023-04-22T14:23:47.152Z,10.10
2023-04-22T14:26:15.397Z,8.45
2023-04-22T14:28:44.109Z,9.00
2023-04-22T14:31:12.839Z,8.50
2023-04-22T14:33:41.260Z,9.15
2023-04-22T14:36:09.794Z,9.68
2023-04-22T14:38:38.163Z,11.10
2023-04-22T14:41:06.950Z,12.30
2023-04-22T14:43:35.248Z,10.20
2023-04-22T14:46:03.743Z,9.32
2023-04-22T14:48:33.272Z,9.75
2023-04-22T14:51:02.008Z,12.13
2023-04-22T14:53:30.292Z,11.25
2023-04-22T14:55:58.593Z,13.75
2023-04-22T14:58:27.938Z,11.48
2023-04-22T15:00:56.296Z,11.13
2023-04-22T15:03:24.681Z,9.70
2023-04-22T15:05:53.377Z,11.68
2023-04-22T15:08:21.718Z,12.68
2023-04-22T15:10:50.041Z,12.20
2023-04-22T15:13:18.402Z,13.07
2023-04-22T15:15:47.565Z,13.57
2023-04-22T15:18:15.893Z,11.63
2023-04-22T15:20:44.205Z,13.02
2023-04-22T15:23:12.588Z,12.98
2023-04-22T15:25:41.064Z,13.57
2023-04-22T15:28:11.302Z,14.32
2023-04-22T15:30:41.514Z,10.95
2023-04-22T15:33:09.793Z,16.88
2023-04-22T15:35:38.143Z,12.95
2023-04-22T15:38:07.226Z,12.20
2023-04-22T15:40:35.509Z,11.68
2023-04-22T15:43:03.825Z,17.70
2023-04-22T15:45:32.208Z,12.75
2023-04-22T15:48:00.602Z,14.50
2023-04-22T15:50:29.171Z,13.43
2023-04-22T15:52:57.468Z,9.70
2023-04-22T15:55:25.891Z,12.07
2023-04-22T15:57:54.268Z,11.45
2023-04-22T16:00:22.615Z,12.18
2023-04-22T16:02:56.178Z,12.75
2023-04-22T16:05:25.571Z,15.37
2023-04-22T16:07:54.979Z,14.07
2023-04-22T16:10:24.107Z,12.88
2023-04-22T16:12:52.717Z,13.98
2023-04-22T16:15:21.048Z,13.50
2023-04-22T16:17:49.517Z,14.48
2023-04-22T16:20:18.012Z,10.07
2023-04-22T16:22:46.391Z,10.82
2023-04-22T16:25:14.850Z,9.80
2023-04-22T16:27:43.210Z,10.32
2023-04-22T16:30:13.224Z,10.40
2023-04-22T16:32:43.147Z,8.20
2023-04-22T16:35:12.291Z,8.55
2023-04-22T16:37:40.549Z,11.60
2023-04-22T16:40:09.776Z,9.20
2023-04-22T16:42:38.106Z,7.90
2023-04-22T16:45:07.505Z,8.30
2023-04-22T16:47:35.814Z,5.65
2023-04-22T16:50:04.662Z,10.77
2023-04-22T16:52:33.029Z,8.23
2023-04-22T16:55:01.689Z,8.18
2023-04-22T16:57:30.160Z,10.05
2023-04-22T16:59:58.558Z,7.22
2023-04-22T17:02:27.182Z,9.73
2023-04-22T17:04:55.601Z,8.57
2023-04-22T17:07:23.834Z,7.00
2023-04-22T17:09:52.074Z,10.02
2023-04-22T17:12:20.381Z,8.27
2023-04-22T17:14:48.675Z,9.02
2023-04-22T17:17:16.949Z,7.00
2023-04-22T17:19:45.291Z,5.70
2023-04-22T17:22:13.736Z,10.30
2023-04-22T17:24:42.321Z,7.35
2023-04-22T17:27:10.681Z,9.30
2023-04-22T17:29:39.245Z,7.65
2023-04-22T17:32:08.067Z,6.97
2023-04-22T17:34:36.479Z,5.93
2023-04-22T17:37:04.768Z,6.80
2023-04-22T17:39:33.205Z,6.97
2023-04-22T17:42:02.612Z,8.20
2023-04-22T17:44:31.972Z,8.00
2023-04-22T17:47:00.844Z,8.30
2023-04-22T17:49:29.201Z,8.70
2023-04-22T17:51:57.514Z,7.85
2023-04-22T17:54:25.973Z,7.13
2023-04-22T17:56:54.260Z,8.05
2023-04-22T17:59:22.507Z,7.47
2023-04-22T18:01:50.848Z,7.18
2023-04-22T18:04:19.115Z,11.13
2023-04-22T18:06:47.765Z,7.45
2023-04-22T18:09:16.105Z,6.35
2023-04-22T18:11:44.509Z,6.65
2023-04-22T18:14:12.826Z,5.93
2023-04-22T18:16:41.171Z,5.97
2023-04-22T18:19:09.498Z,6.22
2023-04-22T18:21:41.474Z,6.13
2023-04-22T18:24:13.536Z,4.10
2023-04-22T18:26:42.908Z,7.35
2023-04-22T18:29:11.331Z,5.85
2023-04-22T18:31:39.686Z,7.00
2023-04-22T18:34:09.001Z,7.25
2023-04-22T18:36:37.291Z,3.78
2023-04-22T18:39:06.440Z,3.75
2023-04-22T18:41:34.694Z,6.03
2023-04-22T18:44:03.140Z,3.42
2023-04-22T18:46:31.496Z,4.25
2023-04-22T18:48:59.803Z,5.88
2023-04-22T18:51:28.590Z,6.15
2023-04-22T18:53:57.229Z,5.15
2023-04-22T18:56:25.543Z,5.80
2023-04-22T18:58:55.320Z,5.43
2023-04-22T19:01:23.839Z,2.92
2023-04-22T19:03:52.542Z,4.43
2023-04-22T19:06:20.899Z,6.55
2023-04-22T19:08:49.705Z,3.45
2023-04-22T19:11:18.040Z,3.95
2023-04-22T19:13:47.468Z,3.42
2023-04-22T19:16:15.813Z,5.45
2023-04-22T19:18:45.937Z,4.25
2023-04-22T19:21:14.294Z,4.05
2023-04-22T19:23:42.949Z,2.60
2023-04-22T19:26:11.375Z,3.22
2023-04-22T19:28:39.690Z,2.95
2023-04-22T19:31:08.340Z,2.17
2023-04-22T19:33:37.134Z,6.47
2023-04-22T19:36:05.670Z,1.63
2023-04-22T19:38:34.078Z,3.10
2023-04-22T19:41:02.643Z,1.48
2023-04-22T19:43:31.043Z,1.35
2023-04-22T19:45:59.379Z,2.28
2023-04-22T19:48:28.066Z,1.45
2023-04-22T19:50:56.596Z,2.42
2023-04-22T19:53:25.072Z,2.08
2023-04-22T19:55:53.899Z,2.13
2023-04-22T19:58:22.932Z,2.08
2023-04-22T20:00:51.695Z,3.22
2023-04-22T20:03:20.572Z,1.35
2023-04-22T20:05:51.253Z,1.08
2023-04-22T20:08:27.008Z,3.05
2023-04-22T20:10:56.405Z,2.53
2023-04-22T20:13:24.898Z,1.77
2023-04-22T20:15:53.648Z,3.10
2023-04-22T20:18:22.026Z,1.77
2023-04-22T20:20:50.733Z,1.38
2023-04-22T20:23:22.382Z,1.55
2023-04-22T20:25:51.789Z,2.15
2023-04-22T20:28:20.877Z,1.67
2023-04-22T20:30:49.420Z,1.52
2023-04-22T20:33:19.255Z,1.88
2023-04-22T20:35:50.405Z,1.52
2023-04-22T20:38:20.270Z,0.90
2023-04-22T20:40:49.605Z,1.60
2023-04-22T20:43:18.047Z,1.40
2023-04-22T20:45:46.423Z,1.38
2023-04-22T20:48:14.696Z,1.17
2023-04-22T20:50:43.195Z,1.98
2023-04-22T20:53:11.580Z,2.40
2023-04-22T20:55:39.856Z,2.50
2023-04-22T20:58:08.198Z,1.98
2023-04-22T21:00:36.697Z,1.48
2023-04-22T21:03:09.704Z,2.28
2023-04-22T21:05:42.874Z,1.35
2023-04-22T21:08:19.093Z,1.10
2023-04-22T21:10:47.969Z,1.20
2023-04-22T21:13:17.021Z,1.67
2023-04-22T21:16:02.148Z,3.47
2023-04-22T21:18:33.256Z,2.90
2023-04-22T21:21:04.904Z,2.30
2023-04-22T21:23:33.743Z,2.55
2023-04-22T21:26:04.055Z,1.92
2023-04-22T21:28:32.616Z,3.00
2023-04-22T21:31:01.385Z,1.45
2023-04-22T21:33:29.637Z,2.03
2023-04-22T21:35:58.102Z,1.33
2023-04-22T21:38:26.746Z,2.17
2023-04-22T21:40:55.277Z,2.58
2023-04-22T21:43:23.708Z,1.27
2023-04-22T21:45:52.090Z,1.80
2023-04-22T21:48:20.309Z,2.50
2023-04-22T21:50:48.730Z,1.25
2023-04-22T21:53:20.275Z,1.55
2023-04-22T21:55:48.751Z,2.17
2023-04-22T21:58:17.360Z,2.30
2023-04-22T22:00:46.130Z,2.30
2023-04-22T22:03:14.646Z,1.75
2023-04-22T22:05:43.187Z,2.50
2023-04-22T22:08:11.545Z,2.28
2023-04-22T22:10:39.847Z,1.77
2023-04-22T22:13:08.838Z,1.30
2023-04-22T22:15:37.760Z,3.60
2023-04-22T22:18:07.589Z,1.40
2023-04-22T22:20:37.397Z,2.55
2023-04-22T22:23:05.711Z,1.25
2023-04-22T22:25:33.958Z,3.13
2023-04-22T22:28:02.284Z,4.22
2023-04-22T22:30:30.883Z,2.15
2023-04-22T22:32:59.221Z,4.82
2023-04-22T22:35:27.683Z,3.30
2023-04-22T22:37:55.984Z,3.70
2023-04-22T22:40:24.325Z,3.30
2023-04-22T22:42:52.622Z,2.97
2023-04-22T22:45:20.937Z,2.90
2023-04-22T22:47:49.404Z,1.63
2023-04-22T22:50:17.748Z,3.20
2023-04-22T22:52:46.107Z,10.05
2023-04-22T22:55:14.746Z,2.72
2023-04-22T22:57:43.118Z,3.25
2023-04-22T23:00:12.814Z,3.25
2023-04-22T23:02:41.359Z,3.45
2023-04-22T23:05:10.875Z,2.20
2023-04-22T23:07:39.479Z,3.05
2023-04-22T23:10:08.488Z,4.18
2023-04-22T23:12:36.740Z,2.88
2023-04-22T23:15:05.510Z,4.45
2023-04-22T23:17:33.801Z,4.43
2023-04-22T23:20:02.556Z,5.22
2023-04-22T23:22:32.956Z,4.35
2023-04-22T23:25:01.566Z,3.60
2023-04-22T23:27:30.651Z,3.92
2023-04-22T23:29:59.305Z,8.32
2023-04-22T23:32:28.349Z,4.80
2023-04-22T23:34:59.604Z,6.40
2023-04-22T23:37:29.811Z,3.97
2023-04-22T23:39:58.314Z,6.20
2023-04-22T23:42:26.784Z,4.63
2023-04-22T23:44:55.014Z,6.43
2023-04-22T23:47:23.272Z,4.43
2023-04-22T23:49:52.171Z,4.95
2023-04-22T23:52:21.203Z,4.15
2023-04-22T23:54:50.994Z,6.88
2023-04-22T23:57:19.647Z,6.43
2023-04-22T23:59:48.651Z,6.00
